Time;durP1;ratioP1;P1;durP2;ratioP2;P2;SDS_P1;SDS_P2;PMS_P1;PMS_P2;Temp;Humidity;BMP_temperature;BMP_pressure;BME280_temperature;BME280_humidity;BME280_pressure;Samples;Min_cycle;Max_cycle;Signal;HPM_P1;HPM_P2
2023/07/11 00:01:17;;;;;;;0.82;0.82;;;;;;;25.57;52.58;99943.75;4410497;32;33619;-84
2023/07/11 00:03:45;;;;;;;1.37;0.95;;;;;;;25.57;52.75;99951.88;4412065;32;33680;-84
2023/07/11 00:06:18;;;;;;;1.62;0.90;;;;;;;25.53;52.78;99945.94;4416769;32;34612;-84
2023/07/11 00:08:46;;;;;;;1.48;0.57;;;;;;;25.53;53.04;99941.38;4417006;32;33901;-84
2023/07/11 00:11:17;;;;;;;1.30;1.20;;;;;;;25.46;53.18;99942.19;4422381;32;34174;-84
2023/07/11 00:13:44;;;;;;;0.82;0.73;;;;;;;25.46;53.23;99942.19;4398997;32;33303;-84
2023/07/11 00:16:14;;;;;;;3.08;1.20;;;;;;;25.45;53.31;99935.09;4426232;32;33940;-84
2023/07/11 00:18:42;;;;;;;2.45;1.40;;;;;;;25.39;53.63;99941.09;4416185;32;34117;-84
2023/07/11 00:21:10;;;;;;;0.77;0.77;;;;;;;25.68;53.03;99941.63;4402836;32;34696;-84
2023/07/11 00:23:40;;;;;;;1.35;1.25;;;;;;;25.68;52.86;99938.91;4415490;32;33324;-84
2023/07/11 00:26:08;;;;;;;1.23;0.85;;;;;;;25.32;53.73;99948.16;4416828;32;33344;-84
2023/07/11 00:28:36;;;;;;;0.95;0.95;;;;;;;25.13;54.17;99946.50;4429538;32;33666;-84
2023/07/11 00:31:04;;;;;;;1.33;1.33;;;;;;;25.09;54.30;99940.56;4414222;32;32727;-84
2023/07/11 00:33:31;;;;;;;2.92;1.00;;;;;;;25.09;54.27;99939.72;4403130;32;33633;-84
2023/07/11 00:35:59;;;;;;;0.45;0.45;;;;;;;25.04;54.25;99934.75;4414408;32;33820;-84
2023/07/11 00:38:27;;;;;;;4.00;2.05;;;;;;;25.10;54.13;99926.03;4416646;32;33301;-84
2023/07/11 00:40:55;;;;;;;0.52;0.52;;;;;;;25.06;54.29;99924.63;4415504;32;35547;-83
2023/07/11 00:43:23;;;;;;;0.35;0.35;;;;;;;25.11;54.40;99916.94;4414383;32;34036;-84
2023/07/11 00:46:15;;;;;;;1.35;1.20;;;;;;;25.10;54.46;99923.34;4401530;32;32153;-84
2023/07/11 00:48:45;;;;;;;1.42;0.88;;;;;;;25.03;54.75;99919.56;4401760;32;32559;-84
2023/07/11 00:51:17;;;;;;;1.05;0.95;;;;;;;25.07;54.49;99928.16;4402990;32;33308;-84
2023/07/11 00:53:46;;;;;;;0.90;0.77;;;;;;;25.00;54.29;99918.00;4430133;32;32454;-84
2023/07/11 00:56:19;;;;;;;1.17;0.75;;;;;;;25.10;53.93;99915.22;4413124;32;33580;-84
2023/07/11 00:58:48;;;;;;;1.00;1.00;;;;;;;25.02;54.03;99916.00;4415145;32;34773;-84
2023/07/11 01:01:17;;;;;;;0.80;0.80;;;;;;;24.82;54.72;99916.31;4417846;32;33645;-84
2023/07/11 01:03:46;;;;;;;1.10;0.77;;;;;;;24.91;54.34;99910.00;4413219;32;33943;-84
2023/07/11 01:06:18;;;;;;;0.85;0.68;;;;;;;24.95;54.37;99916.78;4413745;32;33692;-84
2023/07/11 01:08:48;;;;;;;1.17;1.08;;;;;;;24.84;54.71;99912.47;4403278;32;33431;-84
2023/07/11 01:11:17;;;;;;;1.20;1.10;;;;;;;24.84;54.65;99917.03;4402017;32;34189;-84
2023/07/11 01:13:45;;;;;;;2.62;1.20;;;;;;;24.78;54.88;99916.66;4400660;32;31650;-84
2023/07/11 01:16:13;;;;;;;4.95;0.50;;;;;;;24.86;54.57;99915.84;4416726;32;33965;-83
2023/07/11 01:18:40;;;;;;;0.60;0.57;;;;;;;24.85;54.40;99910.63;4424685;32;34174;-83
2023/07/11 01:21:08;;;;;;;0.77;0.75;;;;;;;24.75;54.57;99908.84;4396495;32;32488;-83
2023/07/11 01:23:36;;;;;;;2.28;1.62;;;;;;;24.81;54.21;99909.22;4399297;32;32193;-83
2023/07/11 01:26:07;;;;;;;3.90;1.75;;;;;;;24.74;54.57;99901.75;4417138;32;32239;-84
2023/07/11 01:28:34;;;;;;;0.93;0.93;;;;;;;24.61;54.83;99904.00;4429071;32;34798;-84
2023/07/11 01:31:03;;;;;;;0.65;0.65;;;;;;;24.78;54.20;99905.84;4416179;32;34130;-84
2023/07/11 01:33:32;;;;;;;1.30;0.95;;;;;;;24.75;54.09;99902.59;4401497;32;33784;-83
2023/07/11 01:36:00;;;;;;;1.20;1.10;;;;;;;24.80;53.93;99902.13;4428062;32;33101;-84
2023/07/11 01:38:29;;;;;;;0.65;0.40;;;;;;;24.87;53.77;99895.09;4420688;32;34186;-83
2023/07/11 01:40:56;;;;;;;0.60;0.60;;;;;;;24.78;53.99;99895.06;4430895;32;34046;-83
2023/07/11 01:43:24;;;;;;;0.37;0.37;;;;;;;24.76;53.83;99891.63;4417517;32;32923;-84
2023/07/11 01:45:52;;;;;;;1.50;1.10;;;;;;;24.75;53.80;99889.09;4418540;32;33093;-84
2023/07/11 01:48:19;;;;;;;1.15;1.05;;;;;;;24.82;53.64;99889.31;4414864;32;33720;-84
2023/07/11 01:50:48;;;;;;;2.28;1.60;;;;;;;24.94;53.38;99888.06;4415587;32;34084;-84
2023/07/11 01:53:16;;;;;;;1.33;1.27;;;;;;;24.94;53.43;99888.06;4430326;32;33221;-84
2023/07/11 01:55:54;;;;;;;0.47;0.47;;;;;;;24.87;53.39;99878.87;4402861;32;33892;-83
2023/07/11 01:58:22;;;;;;;1.52;0.77;;;;;;;24.84;53.61;99882.78;4410990;32;33326;-84
2023/07/11 02:00:51;;;;;;;0.55;0.55;;;;;;;24.92;53.31;99885.50;4403902;32;33827;-83
2023/07/11 02:03:19;;;;;;;1.75;1.00;;;;;;;24.81;53.71;99885.78;4410676;32;32180;-83
2023/07/11 02:05:47;;;;;;;0.77;0.70;;;;;;;24.87;53.47;99882.44;4415319;32;32363;-84
2023/07/11 02:08:16;;;;;;;2.03;1.58;;;;;;;24.85;53.66;99876.34;4405496;32;33601;-84
2023/07/11 02:10:44;;;;;;;1.00;1.00;;;;;;;24.80;53.64;99881.38;4416827;32;34746;-84
2023/07/11 02:13:12;;;;;;;2.12;1.15;;;;;;;24.78;53.68;99881.56;4415600;32;33282;-84
2023/07/11 02:15:41;;;;;;;0.75;0.75;;;;;;;24.77;53.65;99876.28;4396991;32;33371;-84
2023/07/11 02:18:08;;;;;;;4.50;2.05;;;;;;;24.70;53.74;99875.22;4404814;32;34778;-84
2023/07/11 02:20:44;;;;;;;1.45;1.08;;;;;;;24.71;53.73;99883.16;4409580;32;32650;-83
2023/07/11 02:23:13;;;;;;;0.57;0.57;;;;;;;24.65;54.05;99883.78;4415134;32;33651;-84
2023/07/11 02:25:42;;;;;;;1.05;0.90;;;;;;;24.82;53.21;99882.06;4405140;32;32437;-84
2023/07/11 02:28:10;;;;;;;1.10;1.00;;;;;;;24.59;53.82;99878.16;4412752;32;32914;-84
2023/07/11 02:30:38;;;;;;;0.50;0.40;;;;;;;24.52;54.32;99869.84;4425107;32;34088;-84
2023/07/11 02:33:05;;;;;;;0.88;0.88;;;;;;;24.46;54.38;99865.91;4424998;32;33583;-84
2023/07/11 02:35:33;;;;;;;0.93;0.93;;;;;;;24.59;54.05;99872.75;4393034;32;33364;-84
2023/07/11 02:38:01;;;;;;;0.60;0.60;;;;;;;24.58;53.99;99871.91;4415429;32;33625;-83
2023/07/11 02:40:28;;;;;;;1.05;0.80;;;;;;;24.39;54.53;99866.66;4429477;32;34959;-84
2023/07/11 02:42:56;;;;;;;1.12;1.02;;;;;;;24.47;53.77;99873.00;4398447;32;32496;-84
2023/07/11 02:45:24;;;;;;;0.80;0.60;;;;;;;24.50;53.88;99867.31;4402820;32;32724;-84
2023/07/11 02:47:52;;;;;;;0.85;0.57;;;;;;;24.60;53.82;99874.47;4416983;32;33488;-83
2023/07/11 02:50:20;;;;;;;0.88;0.88;;;;;;;24.80;52.94;99867.03;4400783;32;34051;-83
2023/07/11 02:52:48;;;;;;;0.75;0.75;;;;;;;24.97;52.23;99874.25;4426501;32;33785;-84
2023/07/11 02:55:16;;;;;;;3.78;1.17;;;;;;;24.94;52.44;99874.56;4415082;32;32608;-84
2023/07/11 02:57:44;;;;;;;1.35;0.95;;;;;;;24.88;53.01;99881.47;4404565;32;33469;-84
2023/07/11 03:00:12;;;;;;;2.53;1.85;;;;;;;24.99;52.71;99874.94;4405081;32;34180;-84
2023/07/11 03:02:39;;;;;;;0.80;0.80;;;;;;;24.89;53.13;99879.59;4428612;32;33324;-84
2023/07/11 03:05:07;;;;;;;1.45;1.33;;;;;;;25.08;52.59;99882.13;4422771;32;32933;-84
2023/07/11 03:07:36;;;;;;;1.85;0.85;;;;;;;25.03;52.72;99879.03;4416618;32;33121;-84
2023/07/11 03:10:04;;;;;;;1.48;0.85;;;;;;;24.77;53.83;99882.53;4428318;32;34313;-84
2023/07/11 03:12:32;;;;;;;2.17;1.20;;;;;;;25.07;52.70;99882.25;4430336;32;33897;-84
2023/07/11 03:14:59;;;;;;;5.55;2.00;;;;;;;25.03;52.97;99887.97;4401999;32;33243;-84
2023/07/11 03:17:31;;;;;;;2.70;0.82;;;;;;;25.07;53.18;99882.25;4427829;32;34169;-84
2023/07/11 03:19:59;;;;;;;1.20;1.10;;;;;;;25.05;53.10;99890.50;4410294;32;34042;-84
2023/07/11 03:22:27;;;;;;;1.23;1.12;;;;;;;25.04;52.93;99889.66;4413808;32;33179;-83
2023/07/11 03:24:55;;;;;;;2.30;0.77;;;;;;;25.07;53.19;99893.03;4416115;32;33866;-84
2023/07/11 03:27:23;;;;;;;1.02;0.73;;;;;;;25.35;52.46;99891.06;4428576;32;33473;-83
2023/07/11 03:29:50;;;;;;;0.70;0.70;;;;;;;25.40;52.22;99888.75;4417378;32;32848;-84
2023/07/11 03:32:18;;;;;;;1.60;0.95;;;;;;;25.46;51.98;99880.84;4419263;32;33630;-83
2023/07/11 03:34:45;;;;;;;4.78;1.80;;;;;;;25.55;52.14;99881.75;4417718;32;33909;-83
2023/07/11 03:37:20;;;;;;;0.32;0.32;;;;;;;25.44;52.38;99882.84;4402463;32;32369;-84
2023/07/11 03:39:49;;;;;;;0.75;0.75;;;;;;;25.50;52.41;99887.63;4416788;32;34398;-84
2023/07/11 03:42:16;;;;;;;0.80;0.80;;;;;;;25.50;52.55;99890.34;4415372;32;33391;-84
2023/07/11 03:44:44;;;;;;;1.27;0.52;;;;;;;25.52;52.71;99890.16;4418187;32;33908;-84
2023/07/11 03:47:12;;;;;;;2.47;1.00;;;;;;;25.70;52.42;99895.50;4417966;32;34218;-84
2023/07/11 03:49:40;;;;;;;0.65;0.65;;;;;;;25.62;52.85;99903.56;4421662;32;34426;-84
2023/07/11 03:52:07;;;;;;;3.22;0.55;;;;;;;25.62;52.88;99899.00;4415132;32;32105;-84
2023/07/11 03:54:35;;;;;;;1.70;1.12;;;;;;;25.88;52.24;99892.75;4416110;32;33046;-84
2023/07/11 03:57:03;;;;;;;1.25;1.15;;;;;;;25.87;52.41;99901.84;4415095;32;34830;-84
2023/07/11 03:59:31;;;;;;;0.90;0.80;;;;;;;26.11;51.34;99899.25;4428648;32;34873;-84
2023/07/11 04:01:58;;;;;;;2.62;1.00;;;;;;;26.15;51.52;99908.72;4413514;32;33677;-84
2023/07/11 04:04:26;;;;;;;0.62;0.62;;;;;;;26.12;51.66;99911.75;4426744;32;35119;-84
2023/07/11 04:06:54;;;;;;;1.08;0.95;;;;;;;25.53;53.52;99911.63;4432295;32;33549;-83
2023/07/11 04:09:21;;;;;;;0.52;0.52;;;;;;;25.43;53.68;99910.06;4402213;32;32787;-84
2023/07/11 04:11:49;;;;;;;0.88;0.88;;;;;;;25.59;53.15;99912.88;4429625;32;32889;-84
2023/07/11 04:14:17;;;;;;;1.15;1.12;;;;;;;25.49;53.49;99906.69;4414951;32;33024;-84
2023/07/11 04:16:44;;;;;;;1.17;0.62;;;;;;;25.54;53.45;99907.94;4404126;32;33635;-84
2023/07/11 04:19:12;;;;;;;1.75;1.42;;;;;;;25.71;53.15;99908.84;4412016;32;35763;-84
2023/07/11 04:21:40;;;;;;;0.73;0.73;;;;;;;25.77;53.13;99908.22;4415187;32;32110;-84
2023/07/11 04:24:07;;;;;;;0.37;0.37;;;;;;;26.06;52.47;99912.41;4429200;32;33711;-84
2023/07/11 04:26:35;;;;;;;0.60;0.50;;;;;;;26.28;52.00;99916.38;4428355;32;32881;-84
2023/07/11 04:29:02;;;;;;;0.95;0.95;;;;;;;26.22;52.15;99912.47;4416205;32;35367;-84
2023/07/11 04:31:30;;;;;;;1.27;1.17;;;;;;;26.13;52.24;99924.28;4415516;32;33211;-84
2023/07/11 04:33:58;;;;;;;1.35;1.08;;;;;;;26.11;52.38;99918.19;4414198;32;33374;-84
2023/07/11 04:36:25;;;;;;;0.95;0.95;;;;;;;26.18;52.21;99924.63;4403879;32;34005;-84
2023/07/11 04:38:53;;;;;;;0.52;0.47;;;;;;;25.92;52.33;99910.31;4425774;32;33823;-84
2023/07/11 04:41:21;;;;;;;1.67;1.42;;;;;;;25.87;52.38;99915.38;4429143;32;33678;-84
2023/07/11 04:43:49;;;;;;;1.95;1.75;;;;;;;26.27;51.52;99926.34;4403214;32;33348;-84
2023/07/11 04:46:16;;;;;;;1.83;1.45;;;;;;;26.40;51.20;99915.06;4430050;32;33627;-84
2023/07/11 04:48:46;;;;;;;0.77;0.77;;;;;;;26.45;51.19;99911.88;4412897;32;33728;-84
2023/07/11 04:51:13;;;;;;;1.10;0.75;;;;;;;26.27;51.55;99914.69;4414583;32;34378;-84
2023/07/11 04:53:41;;;;;;;1.23;0.55;;;;;;;26.53;50.96;99915.44;4418489;32;32325;-84
2023/07/11 04:56:10;;;;;;;1.02;0.95;;;;;;;26.60;50.78;99912.91;4415201;32;32664;-84
2023/07/11 04:58:37;;;;;;;1.58;1.48;;;;;;;26.81;50.35;99918.66;4430310;32;33468;-84
2023/07/11 05:01:10;;;;;;;1.70;1.10;;;;;;;26.61;50.78;99925.44;4415051;32;34264;-84
2023/07/11 05:03:38;;;;;;;2.12;1.27;;;;;;;26.70;50.45;99918.16;4416540;32;33400;-84
2023/07/11 05:06:07;;;;;;;1.00;1.00;;;;;;;26.80;50.72;99916.97;4415829;32;33917;-84
2023/07/11 05:08:35;;;;;;;1.70;1.20;;;;;;;26.51;51.46;99917.47;4413798;32;34194;-84
2023/07/11 05:11:07;;;;;;;1.20;1.20;;;;;;;26.70;50.04;99910.88;4409816;32;32862;-84
2023/07/11 05:13:35;;;;;;;1.17;1.08;;;;;;;26.92;49.89;99919.34;4415513;32;33348;-84
2023/07/11 05:16:06;;;;;;;2.25;1.27;;;;;;;26.84;50.27;99919.38;4432129;32;34004;-84
2023/07/11 05:18:35;;;;;;;1.30;1.20;;;;;;;26.96;50.08;99920.69;4416896;32;34268;-84
2023/07/11 05:21:02;;;;;;;1.58;1.12;;;;;;;27.23;49.26;99917.66;4430198;32;34230;-84
2023/07/11 05:23:30;;;;;;;3.35;1.52;;;;;;;27.33;48.81;99922.06;4408195;32;32969;-84
2023/07/11 05:25:57;;;;;;;1.87;1.77;;;;;;;27.23;49.47;99922.25;4409522;32;32664;-84
2023/07/11 05:28:26;;;;;;;1.50;1.37;;;;;;;27.49;48.57;99919.34;4406048;32;34855;-84
2023/07/11 05:30:55;;;;;;;1.95;1.75;;;;;;;27.40;48.96;99920.38;4416258;32;33195;-84
2023/07/11 05:33:23;;;;;;;1.80;1.33;;;;;;;27.91;47.31;99924.47;4403570;32;32572;-84
2023/07/11 05:36:30;;;;;;;5.75;1.67;;;;;;;27.60;48.27;99924.37;4405955;32;33530;-84
2023/07/11 05:39:00;;;;;;;1.95;1.65;;;;;;;27.52;48.20;99930.66;4408812;32;35566;-84
2023/07/11 05:41:29;;;;;;;2.47;1.27;;;;;;;27.47;48.40;99932.22;4410618;32;32255;-84
2023/07/11 05:43:57;;;;;;;0.85;0.85;;;;;;;27.85;47.60;99925.19;4414981;32;34738;-84
2023/07/11 05:46:25;;;;;;;2.85;1.15;;;;;;;27.71;47.99;99937.59;4403919;32;33554;-84
2023/07/11 05:48:54;;;;;;;1.75;1.35;;;;;;;27.73;48.13;99934.72;4403232;32;32629;-84
2023/07/11 05:51:22;;;;;;;1.50;1.23;;;;;;;27.92;47.50;99930.75;4419430;32;32610;-84
2023/07/11 05:53:50;;;;;;;1.23;1.10;;;;;;;28.05;47.42;99929.16;4403630;32;34237;-84
2023/07/11 05:56:19;;;;;;;1.58;0.90;;;;;;;28.24;46.71;99933.28;4429744;32;33941;-84
2023/07/11 05:58:48;;;;;;;1.98;1.30;;;;;;;28.44;46.43;99927.44;4412240;32;34198;-84
2023/07/11 06:01:18;;;;;;;0.77;0.70;;;;;;;28.30;46.78;99938.03;4428581;32;33626;-84
2023/07/11 06:03:50;;;;;;;1.70;1.25;;;;;;;28.26;46.66;99942.13;4414980;32;33083;-84
2023/07/11 06:06:19;;;;;;;0.73;0.73;;;;;;;28.23;47.06;99950.63;4418693;32;33330;-84
2023/07/11 06:08:47;;;;;;;1.05;0.95;;;;;;;28.22;46.76;99950.81;4418204;32;34183;-84
2023/07/11 06:11:14;;;;;;;2.17;0.90;;;;;;;28.18;46.75;99958.44;4404621;32;31817;-84
2023/07/11 06:13:42;;;;;;;1.45;1.35;;;;;;;28.03;47.75;99954.78;4424728;32;33614;-84
2023/07/11 06:16:16;;;;;;;4.57;1.60;;;;;;;28.49;46.12;99957.66;4400167;32;33592;-84
2023/07/11 06:18:46;;;;;;;2.00;1.23;;;;;;;28.34;46.43;99960.25;4430619;32;33898;-84
2023/07/11 06:21:14;;;;;;;0.60;0.60;;;;;;;28.28;46.53;99956.37;4417188;32;33580;-84
2023/07/11 06:23:43;;;;;;;1.85;1.27;;;;;;;28.33;46.36;99953.97;4425071;32;33247;-84
2023/07/11 06:26:11;;;;;;;0.82;0.82;;;;;;;28.40;45.94;99953.28;4408992;32;33621;-84
2023/07/11 06:28:39;;;;;;;2.62;0.77;;;;;;;28.72;45.46;99953.09;4405270;32;34121;-84
2023/07/11 06:31:08;;;;;;;0.98;0.98;;;;;;;28.90;45.01;99949.22;4417724;32;32505;-84
2023/07/11 06:33:35;;;;;;;0.85;0.85;;;;;;;28.93;44.85;99951.56;4406239;32;33990;-84
2023/07/11 06:36:05;;;;;;;0.90;0.68;;;;;;;28.74;45.05;99952.91;4418032;32;33439;-85
2023/07/11 06:38:32;;;;;;;1.10;1.05;;;;;;;28.93;44.43;99949.69;4425688;32;34184;-84
2023/07/11 06:41:00;;;;;;;2.25;1.67;;;;;;;29.04;44.75;99948.44;4423015;32;31955;-84
2023/07/11 06:43:29;;;;;;;0.73;0.73;;;;;;;29.16;44.93;99943.44;4406016;32;34086;-84
2023/07/11 06:45:59;;;;;;;1.52;1.12;;;;;;;29.36;44.76;99941.88;4408811;32;34270;-84
2023/07/11 06:48:29;;;;;;;2.20;1.80;;;;;;;29.43;43.93;99947.41;4426467;32;32689;-84
2023/07/11 06:50:59;;;;;;;4.62;1.00;;;;;;;29.79;42.75;99948.41;4417451;32;33031;-84
2023/07/11 06:53:29;;;;;;;3.20;1.90;;;;;;;29.71;42.94;99956.66;4404805;32;32521;-84
2023/07/11 06:55:57;;;;;;;6.25;2.75;;;;;;;29.87;43.07;99947.47;4415465;32;32512;-84
2023/07/11 06:58:25;;;;;;;1.48;1.37;;;;;;;29.65;43.66;99949.25;4414235;32;32815;-85
2023/07/11 07:01:01;;;;;;;1.75;1.48;;;;;;;29.79;42.38;99940.25;4403693;32;33199;-84
2023/07/11 07:03:31;;;;;;;0.85;0.85;;;;;;;30.26;42.80;99949.06;4416258;32;33900;-84
2023/07/11 07:06:08;;;;;;;0.75;0.75;;;;;;;29.92;42.60;99949.63;4402412;32;33501;-84
2023/07/11 07:08:36;;;;;;;0.62;0.62;;;;;;;30.03;42.98;99946.44;4419604;32;32650;-84
2023/07/11 07:11:04;;;;;;;5.85;0.85;;;;;;;29.54;43.00;99949.69;4415596;32;33968;-84
2023/07/11 07:13:32;;;;;;;1.00;0.73;;;;;;;29.61;43.03;99955.25;4426632;32;33466;-84
2023/07/11 07:16:02;;;;;;;1.37;1.25;;;;;;;29.72;42.98;99949.34;4428603;32;34044;-85
2023/07/11 07:18:32;;;;;;;1.55;1.45;;;;;;;30.09;42.31;99948.37;4415803;32;34857;-84
2023/07/11 07:21:02;;;;;;;1.48;1.10;;;;;;;30.32;41.94;99951.84;4413808;32;33507;-85
2023/07/11 07:23:31;;;;;;;0.73;0.73;;;;;;;30.36;41.80;99952.31;4426120;32;33819;-84
2023/07/11 07:26:00;;;;;;;0.40;0.40;;;;;;;30.33;41.47;99952.69;4416092;32;34018;-84
2023/07/11 07:28:28;;;;;;;2.40;2.10;;;;;;;30.26;42.59;99952.63;4415194;32;32728;-85
2023/07/11 07:30:57;;;;;;;2.37;2.03;;;;;;;30.56;41.34;99952.53;4413604;32;32325;-85
2023/07/11 07:33:26;;;;;;;2.53;1.42;;;;;;;30.54;41.80;99951.91;4410496;32;32615;-84
2023/07/11 07:36:00;;;;;;;4.47;2.05;;;;;;;30.60;41.27;99953.84;4410211;32;33248;-84
2023/07/11 07:38:28;;;;;;;1.20;1.10;;;;;;;30.49;41.69;99951.62;4402656;32;32551;-85
2023/07/11 07:40:59;;;;;;;0.70;0.65;;;;;;;30.48;41.99;99950.78;4414661;32;34171;-84
2023/07/11 07:43:28;;;;;;;0.80;0.80;;;;;;;30.87;41.69;99948.72;4404146;32;34049;-84
2023/07/11 07:45:59;;;;;;;0.57;0.57;;;;;;;30.97;41.77;99943.78;4416335;32;33440;-85
2023/07/11 07:48:27;;;;;;;1.10;1.00;;;;;;;31.00;40.93;99949.69;4415371;32;35030;-85
2023/07/11 07:51:02;;;;;;;3.15;1.52;;;;;;;30.80;41.81;99943.19;4415956;32;34017;-85
2023/07/11 07:53:31;;;;;;;6.32;1.35;;;;;;;30.73;41.70;99947.72;4417299;32;32550;-84
2023/07/11 07:56:11;;;;;;;1.98;1.83;;;;;;;31.10;41.54;99943.91;4417633;32;34481;-84
2023/07/11 07:58:39;;;;;;;1.48;1.37;;;;;;;31.39;40.67;99951.09;4415077;32;34777;-85
2023/07/11 08:01:13;;;;;;;1.05;0.95;;;;;;;31.39;40.42;99947.50;4431922;32;34279;-85
2023/07/11 08:03:41;;;;;;;1.58;1.48;;;;;;;31.56;40.23;99954.34;4404728;32;34617;-85
2023/07/11 08:06:10;;;;;;;1.45;1.35;;;;;;;31.57;39.56;99950.56;4404580;32;32438;-85
2023/07/11 08:08:45;;;;;;;2.05;1.12;;;;;;;31.36;39.35;99949.56;4414681;32;34101;-84
2023/07/11 08:11:14;;;;;;;1.25;1.15;;;;;;;31.30;39.23;99946.81;4414653;32;31981;-85
2023/07/11 08:13:42;;;;;;;2.58;1.60;;;;;;;31.74;40.19;99954.66;4417835;32;33824;-84
2023/07/11 08:16:13;;;;;;;1.15;0.73;;;;;;;31.85;39.04;99964.19;4379329;32;35220;-84
2023/07/11 08:18:56;;;;;;;1.12;0.73;;;;;;;32.19;37.75;99949.69;4418730;32;33721;-85
2023/07/11 08:21:24;;;;;;;2.12;0.93;;;;;;;32.22;37.76;99953.88;4421071;32;33287;-85
2023/07/11 08:23:52;;;;;;;2.00;1.55;;;;;;;32.37;37.52;99958.19;4419019;32;34633;-85
2023/07/11 08:26:21;;;;;;;2.05;1.05;;;;;;;31.93;37.29;99955.03;4416126;32;33881;-85
2023/07/11 08:28:50;;;;;;;3.60;2.05;;;;;;;32.41;36.72;99957.78;4403901;32;33712;-84
2023/07/11 08:31:18;;;;;;;1.05;0.95;;;;;;;32.69;37.46;99961.22;4402910;32;32060;-85
2023/07/11 08:33:46;;;;;;;1.15;1.12;;;;;;;32.56;35.94;99961.19;4423911;32;33598;-84
2023/07/11 08:36:13;;;;;;;3.22;1.17;;;;;;;32.53;36.10;99951.53;4401072;32;33434;-84
2023/07/11 08:38:44;;;;;;;3.47;1.60;;;;;;;32.68;36.87;99954.06;4400889;32;32440;-85
2023/07/11 08:41:31;;;;;;;3.35;1.98;;;;;;;32.86;36.83;99954.31;4415139;32;34924;-85
2023/07/11 08:44:04;;;;;;;0.88;0.82;;;;;;;32.92;36.18;99949.09;4417694;32;32402;-85
2023/07/11 08:46:39;;;;;;;2.42;1.25;;;;;;;32.94;34.11;99957.91;4402092;32;34411;-85
2023/07/11 08:49:12;;;;;;;2.00;1.12;;;;;;;32.94;34.17;99955.19;4402706;32;33345;-85
2023/07/11 08:51:43;;;;;;;1.52;1.00;;;;;;;33.00;34.93;99955.22;4414653;32;33197;-85
2023/07/11 08:54:30;;;;;;;1.17;1.10;;;;;;;32.83;33.95;99953.88;4430585;32;34560;-84
2023/07/11 08:56:59;;;;;;;1.17;1.08;;;;;;;32.73;33.40;99956.19;4411095;32;33717;-84
2023/07/11 08:59:39;;;;;;;2.60;1.62;;;;;;;32.78;34.08;99957.25;4428179;32;34220;-85
2023/07/11 09:02:14;;;;;;;2.35;1.30;;;;;;;32.93;33.92;99956.25;4419250;32;32141;-85
2023/07/11 09:04:47;;;;;;;1.10;0.95;;;;;;;33.21;32.98;99967.84;4422536;32;34206;-85
2023/07/11 09:07:36;;;;;;;13.55;1.83;;;;;;;33.22;32.83;99961.31;4419454;32;34051;-85
2023/07/11 09:10:19;;;;;;;0.60;0.60;;;;;;;33.26;33.61;99962.56;4413442;32;34298;-85
2023/07/11 09:13:03;;;;;;;2.30;1.73;;;;;;;33.32;33.02;99960.88;4429830;32;33499;-85
2023/07/11 09:15:50;;;;;;;1.30;1.20;;;;;;;33.40;32.90;99957.94;4415083;32;33994;-85
2023/07/11 09:18:27;;;;;;;1.77;1.52;;;;;;;33.42;33.42;99961.28;4402246;32;32494;-85
2023/07/11 09:21:12;;;;;;;2.78;1.55;;;;;;;33.06;32.38;99959.84;4430265;32;34398;-85
2023/07/11 09:23:44;;;;;;;1.30;1.10;;;;;;;33.06;31.70;99957.09;4414067;32;32758;-85
2023/07/11 09:26:27;;;;;;;2.17;1.92;;;;;;;32.71;32.84;99958.28;4402722;32;33592;-85
2023/07/11 09:29:03;;;;;;;2.62;1.27;;;;;;;33.38;32.35;99949.13;4399925;32;34045;-85
2023/07/11 09:31:40;;;;;;;8.27;0.98;;;;;;;33.82;33.08;99951.16;4421081;32;33230;-85
2023/07/11 09:34:16;;;;;;;2.90;1.85;;;;;;;33.77;32.15;99956.44;4409097;32;31937;-85
2023/07/11 09:36:45;;;;;;;1.70;1.12;;;;;;;33.43;32.49;99953.97;4418416;32;33627;-85
2023/07/11 09:39:29;;;;;;;1.02;1.00;;;;;;;33.66;32.10;99954.34;4425899;32;33838;-85
2023/07/11 09:42:14;;;;;;;2.60;1.85;;;;;;;33.84;32.36;99953.69;4429341;32;34246;-85
2023/07/11 09:44:42;;;;;;;2.70;1.65;;;;;;;34.21;31.42;99943.06;4402752;32;32779;-85
2023/07/11 09:47:17;;;;;;;6.53;1.85;;;;;;;34.18;30.96;99944.31;4401579;32;33817;-85
2023/07/11 09:49:47;;;;;;;0.70;0.70;;;;;;;33.97;31.64;99937.22;4403852;32;32275;-85
2023/07/11 09:52:26;;;;;;;1.67;1.23;;;;;;;33.96;31.79;99937.47;4429726;32;34516;-84
2023/07/11 09:54:55;;;;;;;1.17;1.08;;;;;;;33.77;30.99;99942.75;4408782;32;32152;-85
2023/07/11 09:57:43;;;;;;;1.52;1.20;;;;;;;33.54;31.23;99936.91;4405661;32;33962;-85
2023/07/11 10:00:12;;;;;;;2.05;1.52;;;;;;;33.46;31.30;99939.84;4415949;32;32703;-85
2023/07/11 10:02:50;;;;;;;1.17;1.08;;;;;;;34.15;29.49;99928.31;4420792;32;33586;-84
2023/07/11 10:05:21;;;;;;;1.75;1.65;;;;;;;34.20;31.00;99931.25;4415321;32;33614;-85
2023/07/11 10:08:03;;;;;;;1.62;1.10;;;;;;;34.14;31.01;99937.59;4420997;32;33474;-85
2023/07/11 10:10:31;;;;;;;1.10;1.05;;;;;;;34.35;31.71;99929.06;4429459;32;33914;-85
2023/07/11 10:13:10;;;;;;;0.85;0.82;;;;;;;34.21;30.68;99937.56;4417789;32;34177;-84
2023/07/11 10:15:59;;;;;;;1.08;1.08;;;;;;;33.94;30.87;99936.78;4419966;32;33665;-84
2023/07/11 10:18:34;;;;;;;1.98;1.17;;;;;;;33.70;30.86;99928.22;4403324;32;33683;-84
2023/07/11 10:21:15;;;;;;;1.08;0.93;;;;;;;33.68;30.77;99932.25;4404386;32;33939;-84
2023/07/11 10:23:50;;;;;;;3.22;1.52;;;;;;;33.61;32.62;99943.19;4417985;32;32247;-84
2023/07/11 10:26:22;;;;;;;3.58;2.10;;;;;;;33.56;31.89;99937.50;4409816;32;32909;-84
2023/07/11 10:29:01;;;;;;;;;;;;;;;33.92;31.52;99937.00;4411452;32;33092;-84
2023/07/11 10:32:17;;;;;;;1.90;1.80;;;;;;;34.20;31.38;99931.25;4428323;32;34136;-84
2023/07/11 10:34:51;;;;;;;11.93;1.62;;;;;;;34.30;30.43;99931.63;4414107;32;34095;-84
2023/07/11 10:37:35;;;;;;;3.25;1.95;;;;;;;34.61;31.00;99930.84;4405460;32;32211;-85
2023/07/11 10:40:09;;;;;;;1.20;1.10;;;;;;;34.44;30.10;99923.31;4418034;32;34641;-84
2023/07/11 10:42:47;;;;;;;1.75;1.45;;;;;;;35.03;29.38;99927.63;4429805;32;33988;-85
2023/07/11 10:45:19;;;;;;;0.93;0.93;;;;;;;34.64;29.81;99933.13;4417112;32;33261;-85
2023/07/11 10:48:10;;;;;;;1.23;1.00;;;;;;;34.18;30.22;99943.47;4402620;32;34044;-85
2023/07/11 10:50:45;;;;;;;3.30;1.73;;;;;;;34.73;29.61;99936.47;4399546;32;32925;-84
2023/07/11 10:53:31;;;;;;;1.55;1.42;;;;;;;34.93;29.30;99919.00;4405956;32;34642;-84
2023/07/11 10:56:05;;;;;;;1.62;1.52;;;;;;;34.93;28.53;99927.25;4431497;32;34511;-85
2023/07/11 10:58:33;;;;;;;1.10;1.02;;;;;;;34.93;28.55;99924.50;4417410;32;33555;-85
2023/07/11 11:01:19;;;;;;;1.55;1.27;;;;;;;35.06;28.93;99918.94;4398208;32;33086;-85
2023/07/11 11:03:48;;;;;;;0.90;0.88;;;;;;;34.94;28.76;99921.53;4428920;32;34752;-84
2023/07/11 11:06:31;;;;;;;2.70;1.40;;;;;;;34.13;30.17;99924.94;4402067;32;33360;-84
2023/07/11 11:09:07;;;;;;;1.40;1.12;;;;;;;34.40;29.69;99922.91;4406863;32;33160;-85
2023/07/11 11:11:45;;;;;;;2.25;1.58;;;;;;;34.64;29.49;99913.94;4417528;32;33422;-84
2023/07/11 11:14:18;;;;;;;6.10;2.42;;;;;;;34.55;29.97;99911.69;4418098;32;35269;-84
2023/07/11 11:17:00;;;;;;;0.68;0.68;;;;;;;34.58;30.85;99916.72;4417184;32;34614;-84
2023/07/11 11:19:43;;;;;;;3.70;1.92;;;;;;;34.81;28.90;99905.19;4430682;32;33319;-84
2023/07/11 11:22:34;;;;;;;1.45;1.35;;;;;;;34.68;30.11;99908.84;4406332;32;33514;-85
2023/07/11 11:25:08;;;;;;;0.80;0.80;;;;;;;34.76;30.33;99902.28;4430306;32;33762;-85
2023/07/11 11:28:04;;;;;;;1.83;1.58;;;;;;;34.76;30.47;99902.28;4410038;32;33112;-85
2023/07/11 11:31:02;;;;;;;1.30;1.08;;;;;;;34.97;29.41;99898.34;4412187;32;33006;-84
2023/07/11 11:33:57;;;;;;;2.55;1.67;;;;;;;34.62;30.73;99901.53;4431705;32;33538;-85
2023/07/11 11:36:29;;;;;;;1.90;1.45;;;;;;;34.64;29.71;99896.66;4431364;32;34034;-85
2023/07/11 11:39:29;;;;;;;1.83;1.73;;;;;;;34.26;30.88;99886.50;4403740;32;33046;-85
2023/07/11 11:42:05;;;;;;;1.65;1.55;;;;;;;34.58;30.91;99895.63;4406027;32;33652;-84
2023/07/11 11:44:42;;;;;;;1.27;1.17;;;;;;;34.47;31.23;99893.63;4405208;32;33882;-85
2023/07/11 11:47:13;;;;;;;1.45;1.35;;;;;;;34.15;31.39;99889.97;4423652;32;34161;-84
2023/07/11 11:49:45;;;;;;;2.83;2.15;;;;;;;34.71;30.30;99886.50;4407105;32;34458;-84
2023/07/11 11:52:33;;;;;;;2.58;1.60;;;;;;;34.84;30.32;99889.09;4417394;32;33183;-85
2023/07/11 11:55:25;;;;;;;4.37;1.62;;;;;;;35.25;28.66;99878.66;4432701;32;34589;-84